Thursday, September 20, 2018, 12:29 PM EDT
Back to Local

KNEL, Lakehurst Naval Air Station

Location: Lakehurst, NJ, United States Lat: 40.033
Local Time: 12:29 PM EDT (16:29 GMT) Lon: -74.317
Time Zone: US/Eastern Elev: 101 ft

Show me the last for .
Show Decoded

2018-09-20 12:08 METAR KNEL 201608Z 08007KT 10SM BKN026 OVC035 23/16 A3023 RMK AO2 $ =
2018-09-20 12:00 METAR KNEL 201600Z VRB05KT 10SM SCT028 BKN035 OVC050 23/16 A3023 RMK AO2 $ =
2018-09-20 11:45 METAR KNEL 201545Z VRB05KT 10SM BKN028 OVC035 A3023 RMK AO2 $ =
2018-09-20 11:36 METAR KNEL 201536Z 12004KT 10SM SCT028 OVC035 A3023 RMK AO2 $ =
2018-09-20 11:20 METAR KNEL 201520Z 10006G16KT 10SM BKN026 OVC034 A3023 RMK AO2 $ =
2018-09-20 11:09 METAR KNEL 201509Z 09006KT 10SM SCT026 OVC034 A3022 =
2018-09-20 11:00 METAR KNEL 201500Z 08005KT 10SM BKN025 OVC035 21/15 A3022 RMK AO2 SLPNO 6////
                 T02170150 $ =
2018-09-20 10:43 METAR KNEL 201443Z 12007KT 10SM BKN025 OVC036 A3022 RMK AO2 $ =
2018-09-20 10:13 METAR KNEL 201413Z 07006KT 10SM FEW023 BKN035 OVC055 A3021 RMK AO2 $ =
2018-09-20 10:06 METAR KNEL 201406Z 07006KT 10SM BKN021 21/15 A3021 RMK AO2 SLPNO T02110156 $ =
2018-09-20 10:00 METAR KNEL 201400Z 07008KT 10SM BKN021 21/15 A3021 RMK AO2 $ =
2018-09-20 02:00 METAR KNEL 200600Z AUTO 08007KT 10SM BKN017 OVC022 A3007 RMK AO2 SLPNO 6////
                 51011 FZRANO TSNO PNO $ =
2018-09-20 01:06 METAR KNEL 200506Z AUTO 08006KT 10SM OVC016 A3007 RMK AO2 SLPNO FZRANO TSNO PNO
                 $ =
2018-09-20 01:00 METAR KNEL 200500Z AUTO 09005KT 10SM OVC016 A3007 RMK AO2 FZRANO TSNO PNO $ =
2018-09-20 00:26 METAR KNEL 200426Z AUTO 09006KT 10SM OVC014 A3006 RMK AO2 FZRANO TSNO PNO $ =
2018-09-20 00:00 METAR KNEL 200400Z AUTO 09005KT 10SM BKN015 OVC021 A3006 RMK AO2 SLPNO FZRANO
                 TSNO PNO $ =
2018-09-19 23:31 METAR KNEL 200331Z AUTO 09005KT 10SM OVC017 A3005 =
2018-09-19 23:00 METAR KNEL 200300Z AUTO 09005KT 10SM OVC013 21/19 A3004 RMK AO2 SLP171 6////
                 T02110189 51023 TSNO PNO $ =
2018-09-19 22:42 METAR KNEL 200242Z AUTO 10007KT 10SM OVC014 21/19 A3004 RMK AO2 T02110189 TSNO
                 PNO $ =
2018-09-19 22:09 METAR KNEL 200209Z 08007KT 10SM OVC016 A3003 RMK AO2 PNO $ =
2018-09-19 22:00 METAR KNEL 200200Z 08007KT 10SM OVC014 22/20 A3003 RMK AO2 SLP167 T02220200 PNO
                 $ =
2018-09-19 21:52 METAR KNEL 200152Z 09006KT 10SM OVC014 22/20 A3003 =
2018-09-19 21:42 METAR KNEL 200142Z 08007KT 10SM OVC016 22/20 A3003 RMK AO2 T02220200 PNO $ =
2018-09-19 21:00 METAR KNEL 200100Z COR 11006KT 10SM OVC014 22/20 A3000 RMK AO2 SLPNO PNO $ =
2018-09-19 20:24 METAR KNEL 200024Z 11005KT 10SM BKN013 OVC049 A2999 RMK AO2 PNO $ =
2018-09-19 20:00 METAR KNEL 200000Z 09007KT 10SM OVC044 22/21 A2999 RMK AO2 SLP152 6////
                 T02220211 51019 PNO $ =
2018-09-19 19:00 METAR KNEL 192300Z 11008KT 10SM SCT013 BKN043 24/22 A2996 RMK AO2 SLPNO
                 T02390217 PNO $ =
2018-09-19 18:00 METAR KNEL 192200Z 10007KT 10SM SCT028 BKN037 26/22 A2995 RMK AO2 SLPNO
                 T02560217 PNO $ =
2018-09-19 17:00 METAR KNEL 192100Z 13005KT 10SM FEW035 BKN045 27/21 A2992 RMK AO2 SLPNO 6////
                 T02670211 56001 PNO $ =
2018-09-19 16:00 METAR KNEL 192000Z 13006KT 10SM FEW024 FEW039 27/22 A2990 RMK AO2 SLPNO
                 T02720217 PNO $ =
2018-09-19 15:00 METAR KNEL 191900Z 08008KT 10SM SCT036 27/20 A2990 RMK AO2 SLPNO T02720200 PNO $
                 =
2018-09-19 14:00 METAR KNEL 191800Z 04006KT 10SM SCT042 BKN050 29/20 A2990 RMK AO2 SLPNO 6////
                 T02830194 51008 PNO $ =
2018-09-19 13:00 METAR KNEL 191700Z VRB05KT 10SM FEW036 SCT055 27/19 A2991 RMK AO2 SLPNO
                 T02720194 PNO $ =

Support USWX by starting your Amazon purchase here.